Time;durP1;ratioP1;P1;durP2;ratioP2;P2;SDS_P1;SDS_P2;PMS_P1;PMS_P2;Temp;Humidity;BMP_temperature;BMP_pressure;BME280_temperature;BME280_humidity;BME280_pressure;Samples;Min_cycle;Max_cycle;Signal;HPM_P1;HPM_P2
2022/09/10 00:02:07;;;;;;;;;10.75;9.00;;;;;23.34;56.82;100890.50;146625;673;46016;-83
2022/09/10 00:05:13;;;;;;;;;6.75;6.00;;;;;23.31;57.34;100887.84;146626;597;46020;-76
2022/09/10 00:08:13;;;;;;;;;10.25;9.75;;;;;23.34;57.42;100886.97;146621;643;46014;-75
2022/09/10 00:11:31;;;;;;;;;11.75;8.75;;;;;23.33;56.91;100883.44;146618;588;47010;-86
2022/09/10 00:14:52;;;;;;;;;;;;;;;;;;;;;
2022/09/10 00:17:50;;;;;;;;;9.50;8.25;;;;;23.26;57.58;100885.19;146627;638;46020;-75
2022/09/10 00:21:23;;;;;;;;;7.33;7.00;;;;;21.70;56.62;100611.66;146625;587;46012;-74
2022/09/10 00:24:18;;;;;;;;;8.75;8.00;;;;;23.28;57.79;100885.19;146630;577;46010;-77
2022/09/10 00:27:21;;;;;;;;;10.25;9.50;;;;;23.24;58.52;100881.66;146624;570;46012;-77
2022/09/10 00:30:17;;;;;;;;;10.00;10.00;;;;;23.17;58.47;100879.88;146625;669;46020;-93
2022/09/10 00:33:09;;;;;;;;;8.75;7.75;;;;;23.11;58.80;100878.97;146622;714;45021;-92
2022/09/10 00:36:04;;;;;;;;;12.00;9.00;;;;;23.04;58.87;100873.69;146623;689;45021;-76
2022/09/10 00:39:02;;;;;;;;;9.25;8.50;;;;;23.01;59.13;100872.78;146621;569;46012;-77
2022/09/10 00:42:00;;;;;;;;;6.50;5.50;;;;;23.00;58.73;100873.69;146628;566;46015;-73
2022/09/10 00:45:23;;;;;;;;;11.75;8.50;;;;;23.02;58.46;100869.25;146626;607;46016;-73
2022/09/10 00:48:25;;;;;;;;;9.50;9.25;;;;;23.02;58.62;100872.81;146627;628;46021;-75
2022/09/10 00:51:35;;;;;;;;;8.50;8.50;;;;;23.01;59.13;100867.50;146629;631;46012;-76
2022/09/10 00:54:32;;;;;;;;;11.25;9.50;;;;;22.99;58.92;100864.88;146623;629;46010;-74
2022/09/10 00:57:26;;;;;;;;;9.50;8.50;;;;;22.99;58.91;100864.88;146622;596;46017;-75
2022/09/10 01:00:35;;;;;;;;;10.00;9.75;;;;;21.15;58.18;100549.81;146628;679;46020;-77
2022/09/10 01:03:37;;;;;;;;;9.00;8.00;;;;;22.97;59.00;100858.69;146626;575;46016;-74
2022/09/10 01:06:30;;;;;;;;;10.25;9.00;;;;;22.97;58.86;100863.97;146625;576;46021;-75
2022/09/10 01:09:34;;;;;;;;;8.75;8.75;;;;;22.95;58.14;100852.50;146623;564;46012;-75
2022/09/10 01:12:58;;;;;;;;;10.00;8.00;;;;;22.99;57.92;100872.81;146629;582;46020;-76
2022/09/10 01:16:40;;;;;;;;;8.25;8.25;;;;;21.24;57.50;100559.50;146628;668;46016;-77
2022/09/10 01:20:10;;;;;;;;;11.50;10.25;;;;;21.17;58.93;100549.81;146625;691;46021;-78
2022/09/10 01:23:54;;;;;;;;;12.00;11.50;;;;;22.81;59.15;100849.78;146617;565;46012;-77
2022/09/10 01:27:24;;;;;;;;;7.75;7.25;;;;;22.68;58.90;100840.06;146627;669;46015;-77
2022/09/10 01:30:38;;;;;;;;;7.50;7.50;;;;;22.65;60.17;100833.84;146623;576;46914;-74
2022/09/10 01:33:45;;;;;;;;;12.25;10.25;;;;;22.64;59.21;100838.25;146623;574;46029;-77
2022/09/10 01:36:49;;;;;;;;;8.00;7.75;;;;;21.83;59.80;100688.22;146617;675;46016;-77
2022/09/10 01:39:55;;;;;;;;;11.00;11.00;;;;;20.88;58.88;100523.31;146627;674;46020;-78
2022/09/10 01:43:03;;;;;;;;;10.25;9.25;;;;;22.71;59.92;100834.78;146624;664;46017;-78
2022/09/10 01:46:38;;;;;;;;;7.50;7.00;;;;;22.75;58.94;100839.19;146620;730;47020;-77
2022/09/10 01:50:07;;;;;;;;;10.00;10.00;;;;;22.80;58.34;100848.03;146619;621;46016;-79
2022/09/10 01:53:55;;;;;;;;;11.00;8.75;;;;;22.83;58.68;100855.06;146624;711;46012;-78
2022/09/10 01:57:21;;;;;;;;;10.50;8.75;;;;;22.80;58.83;100857.69;146622;582;46017;-84
2022/09/10 02:00:39;;;;;;;;;8.50;8.00;;;;;22.69;59.70;100847.09;146628;622;46020;-77
2022/09/10 02:03:37;;;;;;;;;12.00;10.25;;;;;22.56;61.02;100838.25;146622;610;46015;-81
2022/09/10 02:06:41;;;;;;;;;8.50;8.00;;;;;22.49;61.66;100836.47;146623;612;46010;-83
2022/09/10 02:09:43;;;;;;;;;11.75;10.00;;;;;22.42;61.36;100847.00;146620;624;47012;-80
2022/09/10 02:12:44;;;;;;;;;10.00;8.00;;;;;22.39;61.01;100841.69;146623;607;46021;-78
2022/09/10 02:15:48;;;;;;;;;10.00;8.00;;;;;22.40;60.61;100839.06;146620;661;46012;-77
2022/09/10 02:18:49;;;;;;;;;10.00;8.25;;;;;22.46;59.83;100831.19;146624;573;46020;-76
2022/09/10 02:22:02;;;;;;;;;;;;;;;;;;;;;
2022/09/10 02:25:00;;;;;;;;;9.25;7.75;;;;;22.53;60.72;100834.72;146624;693;46022;-76
2022/09/10 02:27:58;;;;;;;;;8.75;7.75;;;;;22.45;61.29;100826.75;146619;706;46016;-76
2022/09/10 02:31:05;;;;;;;;;10.75;10.75;;;;;22.35;61.85;100828.47;146630;667;46010;-75
2022/09/10 02:34:07;;;;;;;;;7.75;7.75;;;;;22.26;61.93;100822.25;146617;575;46014;-74
2022/09/10 02:37:02;;;;;;;;;12.00;10.00;;;;;22.18;62.20;100827.50;146625;693;46014;-78
2022/09/10 02:39:57;;;;;;;;;9.50;9.00;;;;;22.14;61.72;100826.56;146618;708;46015;-73
2022/09/10 02:43:16;;;;;;;;;;;;;;;;;;;;;
2022/09/10 02:46:17;;;;;;;;;11.00;8.00;;;;;22.27;61.10;100829.28;146625;660;46911;-73
2022/09/10 02:49:14;;;;;;;;;12.25;10.25;;;;;22.32;61.84;100830.22;146626;714;46010;-75
2022/09/10 02:52:27;;;;;;;;;11.00;8.50;;;;;22.33;62.37;100831.97;146618;674;46016;-75
2022/09/10 02:55:40;;;;;;;;;;;;;;;;;;;;;
2022/09/10 02:58:45;;;;;;;;;10.25;10.00;;;;;19.86;61.72;100412.81;146620;649;46012;-76
2022/09/10 03:01:58;;;;;;;;;12.00;10.25;;;;;20.36;61.18;100518.50;146621;576;46020;-75
2022/09/10 03:04:55;;;;;;;;;8.67;8.33;;;;;22.18;62.67;100835.44;146622;570;46017;-76
2022/09/10 03:07:51;;;;;;;;;9.00;9.00;;;;;22.17;62.76;100835.41;146624;596;47010;-77
2022/09/10 03:10:48;;;;;;;;;10.33;8.33;;;;;22.14;63.48;100837.13;146622;567;47017;-75
2022/09/10 03:13:44;;;;;;;;;10.00;9.00;;;;;22.09;63.41;100830.94;146624;585;46020;-78
2022/09/10 03:16:36;;;;;;;;;8.50;7.00;;;;;22.08;63.46;100836.22;146620;688;46913;-76
2022/09/10 03:19:36;;;;;;;;;12.50;11.75;;;;;22.10;62.57;100840.63;146624;600;46021;-77
2022/09/10 03:22:33;;;;;;;;;20.75;17.75;;;;;22.12;63.42;100838.00;146620;664;46016;-80
2022/09/10 03:25:37;;;;;;;;;22.50;20.25;;;;;22.12;62.98;100838.88;146620;596;46011;-76
2022/09/10 03:28:36;;;;;;;;;58.00;44.50;;;;;22.15;62.79;100843.31;146616;570;46016;-79
2022/09/10 03:31:42;;;;;;;;;61.00;46.25;;;;;22.18;62.69;100840.72;146621;609;46010;-78
2022/09/10 03:34:48;;;;;;;;;49.25;38.75;;;;;22.24;63.45;100845.12;146618;567;46012;-79
2022/09/10 03:37:43;;;;;;;;;46.00;34.75;;;;;22.24;63.93;100850.41;146616;615;45020;-82
2022/09/10 03:40:51;;;;;;;;;45.00;37.00;;;;;22.19;63.41;100845.12;146618;585;46034;-81
2022/09/10 03:44:05;;;;;;;;;71.00;56.50;;;;;22.18;63.50;100843.37;146620;565;46020;-82
2022/09/10 03:47:07;;;;;;;;;82.75;69.50;;;;;22.19;63.28;100853.03;146620;593;46012;-79
2022/09/10 03:50:01;;;;;;;;;65.00;49.00;;;;;22.19;64.41;100855.69;146620;579;46014;-75
2022/09/10 03:52:59;;;;;;;;;60.25;47.25;;;;;22.16;64.05;100847.75;146618;604;45016;-80
2022/09/10 03:56:00;;;;;;;;;63.00;48.25;;;;;22.15;63.93;100848.59;146624;715;45021;-78
2022/09/10 03:58:52;;;;;;;;;71.75;63.75;;;;;22.13;64.29;100855.62;146618;607;46016;-75
2022/09/10 04:01:47;;;;;;;;;82.67;77.00;;;;;22.11;64.48;100857.34;146620;585;46010;-76
2022/09/10 04:04:41;;;;;;;;;65.75;51.50;;;;;22.11;64.32;100846.78;146619;637;46012;-77
2022/09/10 04:07:33;;;;;;;;;58.00;46.25;;;;;22.09;64.85;100845.91;146617;607;46020;-77
2022/09/10 04:10:29;;;;;;;;;62.75;47.75;;;;;22.08;64.49;100852.06;146616;588;46017;-72
2022/09/10 04:13:36;;;;;;;;;85.00;77.33;;;;;22.13;64.74;100856.50;146622;571;46010;-75
2022/09/10 04:16:29;;;;;;;;;70.25;60.75;;;;;22.19;64.46;100862.72;146616;600;46913;-73
2022/09/10 04:19:29;;;;;;;;;82.33;73.33;;;;;22.24;64.05;100861.88;146620;570;46020;-75
2022/09/10 04:22:27;;;;;;;;;82.67;74.33;;;;;22.24;65.18;100859.25;146620;569;46016;-75
2022/09/10 04:25:41;;;;;;;;;99.33;84.33;;;;;22.23;63.68;100857.47;146622;576;45021;-75
2022/09/10 04:28:34;;;;;;;;;88.00;76.00;;;;;22.26;64.85;100856.59;146623;569;45016;-74
2022/09/10 04:31:32;;;;;;;;;74.25;62.75;;;;;22.30;64.82;100863.66;146626;596;46020;-76
2022/09/10 04:34:36;;;;;;;;;70.25;58.00;;;;;22.36;64.86;100866.31;146619;571;46012;-75
2022/09/10 04:37:44;;;;;;;;;66.00;50.50;;;;;20.48;63.82;100536.16;146619;629;46020;-75
2022/09/10 04:40:38;;;;;;;;;64.75;50.25;;;;;22.40;64.53;100873.41;146615;588;46014;-75
2022/09/10 04:43:36;;;;;;;;;66.75;51.00;;;;;22.46;64.93;100869.91;146620;652;46020;-74
2022/09/10 04:46:37;;;;;;;;;61.00;46.50;;;;;22.54;65.80;100873.47;146613;590;46016;-75
2022/09/10 04:49:35;;;;;;;;;47.25;39.25;;;;;22.72;64.97;100872.69;146622;633;46010;-76
2022/09/10 04:52:32;;;;;;;;;42.25;36.00;;;;;23.00;64.60;100882.50;146617;654;46913;-75
2022/09/10 04:55:24;;;;;;;;;34.50;27.75;;;;;23.24;63.99;100883.41;146620;575;46010;-76
2022/09/10 04:58:20;;;;;;;;;28.75;26.00;;;;;23.46;62.29;100884.34;146614;693;46016;-79
2022/09/10 05:01:15;;;;;;;;;25.00;23.50;;;;;23.67;61.46;100883.44;146619;610;46020;-78
2022/09/10 05:04:09;;;;;;;;;30.25;27.00;;;;;23.89;61.52;100879.06;146616;571;46014;-78
2022/09/10 05:07:18;;;;;;;;;26.75;24.00;;;;;24.03;60.30;100879.06;146606;580;46917;-76
2022/09/10 05:10:24;;;;;;;;;22.75;21.50;;;;;24.09;59.77;100882.59;146618;635;46012;-76
2022/09/10 05:13:27;;;;;;;;;23.75;20.50;;;;;24.20;60.11;100885.19;146621;600;46014;-75
2022/09/10 05:16:29;;;;;;;;;24.75;23.50;;;;;24.41;59.72;100882.53;146614;618;46029;-75
2022/09/10 05:19:26;;;;;;;;;24.50;21.00;;;;;24.57;59.31;100885.13;146619;577;46010;-75
2022/09/10 05:22:23;;;;;;;;;26.75;25.75;;;;;24.75;58.59;100884.19;146614;570;46012;-74
2022/09/10 05:25:22;;;;;;;;;24.25;21.00;;;;;24.88;58.60;100885.88;146619;594;46010;-74
2022/09/10 05:28:19;;;;;;;;;22.00;21.00;;;;;25.02;58.39;100878.75;146615;675;46012;-75
2022/09/10 05:31:15;;;;;;;;;25.75;24.25;;;;;25.24;58.09;100883.94;146619;659;46021;-76
2022/09/10 05:34:10;;;;;;;;;34.00;30.25;;;;;25.44;56.68;100878.50;146613;569;46016;-77
2022/09/10 05:37:07;;;;;;;;;30.25;27.50;;;;;25.61;57.61;100873.03;146621;588;45020;-75
2022/09/10 05:40:08;;;;;;;;;37.25;32.50;;;;;25.84;56.14;100883.50;146613;631;46017;-77
2022/09/10 05:43:03;;;;;;;;;33.50;29.25;;;;;26.06;55.33;100886.84;146619;605;47010;-78
2022/09/10 05:46:01;;;;;;;;;35.00;29.50;;;;;26.25;55.47;100883.97;146617;618;46015;-75
2022/09/10 05:48:56;;;;;;;;;37.00;30.25;;;;;26.44;55.00;100881.09;146621;650;46010;-75
2022/09/10 05:51:54;;;;;;;;;34.00;29.50;;;;;26.59;54.91;100888.06;146616;581;46012;-75
2022/09/10 05:54:49;;;;;;;;;29.00;27.00;;;;;26.73;54.53;100878.16;146620;580;46020;-80
2022/09/10 05:57:51;;;;;;;;;31.00;26.25;;;;;26.89;54.96;100881.47;146614;563;46016;-80
2022/09/10 06:00:53;;;;;;;;;33.75;28.00;;;;;27.05;53.70;100885.69;146618;594;46014;-78
2022/09/10 06:04:04;;;;;;;;;26.75;25.00;;;;;25.58;53.61;100605.81;146617;621;46012;-77
2022/09/10 06:07:01;;;;;;;;;27.75;23.50;;;;;27.39;53.96;100879.91;146620;600;46020;-73
2022/09/10 06:09:53;;;;;;;;;23.00;22.00;;;;;27.57;53.18;100884.03;146617;642;46017;-69
2022/09/10 06:12:57;;;;;;;;;25.00;24.50;;;;;27.75;52.26;100885.50;146619;608;46020;-71
2022/09/10 06:16:00;;;;;;;;;23.50;22.00;;;;;26.27;51.66;100605.75;146614;570;46913;-71
2022/09/10 06:18:57;;;;;;;;;22.25;21.00;;;;;28.05;51.50;100892.13;146620;577;46020;-68
2022/09/10 06:21:54;;;;;;;;;22.25;20.00;;;;;28.15;51.94;100884.84;146616;686;46035;-67
2022/09/10 06:24:47;;;;;;;;;20.00;18.00;;;;;28.24;50.26;100885.53;146619;595;46014;-75
2022/09/10 06:27:56;;;;;;;;;19.50;17.50;;;;;28.31;50.55;100879.16;146616;577;46014;-71
2022/09/10 06:30:59;;;;;;;;;;;;;;;;;;;;;
2022/09/10 06:34:10;;;;;;;;;;;;;;;;;;;;;
2022/09/10 06:37:07;;;;;;;;;23.50;19.00;;;;;28.68;50.03;100880.25;146619;618;46020;-76
2022/09/10 06:40:05;;;;;;;;;22.50;19.25;;;;;28.79;48.99;100878.25;146616;580;46036;-73
2022/09/10 06:43:01;;;;;;;;;19.50;19.50;;;;;28.89;49.07;100877.13;146622;605;46010;-72
2022/09/10 06:45:55;;;;;;;;;16.75;16.00;;;;;29.02;49.01;100880.44;146617;635;46017;-72
2022/09/10 06:48:53;;;;;;;;;21.00;18.50;;;;;29.15;48.66;100878.34;146617;591;46020;-73
2022/09/10 06:51:49;;;;;;;;;19.25;17.75;;;;;29.16;47.47;100873.00;146613;569;46013;-74
2022/09/10 06:54:44;;;;;;;;;17.75;17.25;;;;;29.06;49.15;100873.22;146620;579;46010;-74
2022/09/10 06:57:57;;;;;;;;;18.25;16.25;;;;;29.06;47.96;100865.22;146612;619;46016;-74
2022/09/10 07:00:53;;;;;;;;;20.00;14.75;;;;;29.05;49.80;100869.69;146617;588;46021;-72
2022/09/10 07:03:50;;;;;;;;;15.25;14.00;;;;;29.13;49.76;100872.16;146615;666;46012;-74
2022/09/10 07:06:44;;;;;;;;;14.25;13.00;;;;;29.24;48.57;100868.34;146608;602;47010;-74
2022/09/10 07:09:42;;;;;;;;;16.25;15.75;;;;;29.37;48.75;100866.25;146617;647;46012;-74
2022/09/10 07:12:43;;;;;;;;;19.75;17.25;;;;;29.52;47.41;100869.47;146619;628;46014;-75
2022/09/10 07:15:42;;;;;;;;;18.00;15.50;;;;;29.57;48.60;100865.78;146611;625;47012;-74
2022/09/10 07:18:44;;;;;;;;;22.00;19.75;;;;;29.71;48.38;100868.09;146615;571;46010;-74
2022/09/10 07:21:39;;;;;;;;;17.75;17.75;;;;;29.87;48.38;100871.25;146615;590;46013;-72
2022/09/10 07:24:39;;;;;;;;;17.75;16.50;;;;;29.98;47.94;100871.00;146618;569;46020;-73
2022/09/10 07:27:38;;;;;;;;;18.75;17.75;;;;;30.05;48.66;100880.59;146614;584;46016;-75
2022/09/10 07:30:54;;;;;;;;;;;;;;;;;;;;;
2022/09/10 07:34:02;;;;;;;;;19.75;19.00;;;;;30.22;48.53;100877.47;146614;600;46018;-73
2022/09/10 07:36:57;;;;;;;;;19.00;16.25;;;;;30.27;47.68;100884.47;146619;649;46011;-74
2022/09/10 07:40:03;;;;;;;;;20.50;15.25;;;;;30.31;48.22;100885.25;146615;700;46012;-74
2022/09/10 07:43:09;;;;;;;;;;;;;;;;;;;;;
2022/09/10 07:46:36;;;;;;;;;;;;;;;;;;;;;
2022/09/10 07:49:34;;;;;;;;;14.75;13.50;;;;;30.42;48.76;100888.50;146619;578;46014;-74
2022/09/10 07:52:26;;;;;;;;;16.75;14.00;;;;;30.56;48.70;100882.75;146613;564;46016;-73
2022/09/10 07:55:27;;;;;;;;;16.75;15.75;;;;;30.67;48.11;100877.97;146615;582;46012;-73
2022/09/10 07:58:43;;;;;;;;;14.50;13.00;;;;;29.21;48.57;100621.88;146616;681;46013;-74
2022/09/10 08:01:40;;;;;;;;;13.00;13.00;;;;;30.77;49.87;100875.91;146615;678;46020;-75
2022/09/10 08:04:39;;;;;;;;;13.00;12.75;;;;;30.75;49.39;100875.97;146614;569;46016;-74
2022/09/10 08:07:32;;;;;;;;;14.00;12.25;;;;;30.81;48.84;100878.50;146614;656;46010;-76
2022/09/10 08:10:32;;;;;;;;;17.25;13.25;;;;;30.89;48.43;100863.97;146612;634;47023;-73
2022/09/10 08:13:28;;;;;;;;;15.25;13.25;;;;;30.94;49.04;100870.09;146619;564;46011;-74
2022/09/10 08:16:28;;;;;;;;;9.25;9.00;;;;;30.99;49.44;100863.63;146622;620;46012;-77
2022/09/10 08:19:29;;;;;;;;;16.75;15.00;;;;;31.15;48.14;100860.47;146623;600;46010;-77
2022/09/10 08:22:25;;;;;;;;;16.25;14.00;;;;;31.21;47.81;100858.47;146617;631;46012;-84
2022/09/10 08:25:24;;;;;;;;;16.00;13.75;;;;;31.29;47.29;100852.88;146616;600;46030;-85
2022/09/10 08:28:28;;;;;;;;;14.00;12.00;;;;;31.30;47.19;100855.50;146615;613;46915;-83
2022/09/10 08:31:21;;;;;;;;;14.25;13.75;;;;;31.19;46.73;100849.63;146615;565;46010;-76
2022/09/10 08:34:21;;;;;;;;;15.00;13.75;;;;;31.09;48.15;100853.50;146619;676;45027;-84
2022/09/10 08:37:22;;;;;;;;;13.50;11.75;;;;;31.07;48.19;100844.66;146619;578;46020;-82
2022/09/10 08:40:18;;;;;;;;;14.25;13.00;;;;;31.09;47.87;100837.44;146617;576;46914;-86
2022/09/10 08:43:12;;;;;;;;;13.75;13.75;;;;;31.16;48.43;100840.81;146615;687;46020;-79
2022/09/10 08:46:16;;;;;;;;;12.75;12.75;;;;;31.29;48.99;100842.16;146617;593;46012;-82
2022/09/10 08:49:52;;;;;;;;;14.25;12.50;;;;;31.54;48.35;100839.56;146613;581;46020;-81
2022/09/10 08:53:00;;;;;;;;;13.00;11.50;;;;;31.78;47.66;100835.19;146613;692;46018;-81
2022/09/10 08:56:04;;;;;;;;;10.25;10.00;;;;;31.96;47.61;100830.97;146620;642;46020;-80
2022/09/10 08:59:16;;;;;;;;;12.50;10.75;;;;;32.14;47.85;100824.94;146616;579;46016;-76
2022/09/10 09:02:52;;;;;;;;;10.50;9.75;;;;;32.28;47.89;100834.31;146623;686;46020;-78
2022/09/10 09:05:55;;;;;;;;;12.25;11.00;;;;;32.35;46.12;100825.09;146619;705;46013;-75
2022/09/10 09:09:15;;;;;;;;;10.50;10.50;;;;;32.41;46.62;100824.88;146619;577;46010;-77
2022/09/10 09:12:55;;;;;;;;;16.00;13.25;;;;;32.49;47.09;100817.41;146616;607;46017;-80
2022/09/10 09:16:21;;;;;;;;;13.50;12.75;;;;;31.17;47.17;100564.00;146619;693;46020;-82
2022/09/10 09:19:38;;;;;;;;;16.25;14.25;;;;;32.70;47.75;100798.75;146613;575;46016;-79
2022/09/10 09:23:16;;;;;;;;;11.75;10.50;;;;;32.81;46.66;100791.16;146622;565;46014;-80
2022/09/10 09:26:18;;;;;;;;;13.50;12.00;;;;;32.89;46.27;100787.19;146620;610;45912;-80
2022/09/10 09:29:27;;;;;;;;;15.00;13.50;;;;;33.00;45.62;100783.25;146618;573;46020;-80
2022/09/10 09:32:25;;;;;;;;;18.25;14.25;;;;;33.00;45.73;100781.44;146612;569;46014;-82
2022/09/10 09:35:39;;;;;;;;;13.25;13.00;;;;;33.01;46.34;100777.78;146620;567;46020;-91
2022/09/10 09:38:50;;;;;;;;;14.50;12.75;;;;;33.01;46.50;100774.25;146619;576;45043;-87
2022/09/10 09:42:31;;;;;;;;;15.75;12.00;;;;;33.03;46.11;100775.94;146615;564;46021;-88
2022/09/10 09:46:00;;;;;;;;;13.75;11.75;;;;;31.44;45.04;100513.91;146617;627;46018;-80
2022/09/10 09:49:03;;;;;;;;;14.25;13.25;;;;;32.81;46.53;100764.28;146622;626;46015;-79
2022/09/10 09:52:07;;;;;;;;;15.25;14.00;;;;;32.85;46.14;100764.09;146616;571;46016;-80
2022/09/10 09:55:42;;;;;;;;;11.00;11.00;;;;;32.97;46.09;100765.44;146620;571;47010;-81
2022/09/10 09:58:57;;;;;;;;;13.67;12.67;;;;;31.52;45.83;100509.09;146619;704;46016;-76
2022/09/10 10:01:51;;;;;;;;;16.33;12.67;;;;;32.99;44.57;100752.84;146621;564;46010;-81
2022/09/10 10:05:08;;;;;;;;;13.50;12.75;;;;;33.02;46.05;100746.44;146618;578;46016;-81
2022/09/10 10:08:03;;;;;;;;;13.50;11.25;;;;;33.10;44.77;100741.63;146621;602;46020;-79
2022/09/10 10:11:18;;;;;;;;;9.75;9.75;;;;;33.13;45.27;100738.81;146615;579;46017;-81
2022/09/10 10:14:48;;;;;;;;;12.75;12.75;;;;;32.35;45.48;100586.28;146619;566;46014;-81
2022/09/10 10:17:50;;;;;;;;;14.25;12.00;;;;;33.41;45.17;100732.25;146619;630;46012;-82
2022/09/10 10:20:48;;;;;;;;;12.00;9.25;;;;;33.64;44.81;100734.81;146623;693;46031;-80
2022/09/10 10:23:45;;;;;;;;;13.50;11.50;;;;;33.84;43.86;100723.19;146616;683;46016;-82
2022/09/10 10:26:58;;;;;;;;;12.25;10.50;;;;;34.00;42.85;100729.59;146621;743;46021;-82
2022/09/10 10:30:23;;;;;;;;;13.00;11.75;;;;;34.12;43.88;100720.12;146617;574;46016;-82
2022/09/10 10:33:27;;;;;;;;;10.33;10.33;;;;;34.18;43.78;100719.84;146622;690;46020;-81
2022/09/10 10:36:38;;;;;;;;;12.50;10.25;;;;;34.27;43.46;100707.75;146614;606;46016;-78
2022/09/10 10:40:16;;;;;;;;;10.33;8.67;;;;;33.00;44.44;100474.34;146620;578;46020;-81
2022/09/10 10:43:52;;;;;;;;;11.50;10.00;;;;;32.94;44.64;100443.22;146618;665;46016;-82
2022/09/10 10:47:31;;;;;;;;;11.00;9.50;;;;;34.45;44.36;100690.69;146620;672;46020;-81
2022/09/10 10:51:15;;;;;;;;;10.25;9.75;;;;;34.47;44.87;100693.34;146618;596;46914;-80
2022/09/10 10:54:37;;;;;;;;;13.00;11.00;;;;;34.43;44.63;100684.53;146622;582;46021;-80
2022/09/10 10:58:19;;;;;;;;;13.50;12.00;;;;;34.45;45.15;100682.62;146619;682;46016;-81
2022/09/10 11:01:37;;;;;;;;;13.00;13.00;;;;;33.23;45.19;100446.41;146612;641;46020;-80
2022/09/10 11:04:50;;;;;;;;;9.75;8.75;;;;;34.80;43.88;100676.47;146619;676;46016;-84
2022/09/10 11:07:52;;;;;;;;;12.75;11.00;;;;;34.79;42.09;100677.44;146611;670;46020;-81
2022/09/10 11:11:22;;;;;;;;;12.50;10.50;;;;;33.31;43.93;100437.03;146610;647;46036;-82
2022/09/10 11:14:57;;;;;;;;;15.00;11.75;;;;;34.69;43.74;100661.72;146610;563;46020;-82
2022/09/10 11:18:43;;;;;;;;;15.00;12.25;;;;;32.94;43.49;100376.09;146605;592;47013;-79
2022/09/10 11:21:57;;;;;;;;;12.25;11.25;;;;;34.61;42.90;100668.44;146607;698;46020;-79
2022/09/10 11:25:21;;;;;;;;;8.00;7.67;;;;;34.48;43.17;100669.00;146615;564;46017;-83
2022/09/10 11:28:26;;;;;;;;;13.75;10.75;;;;;34.34;42.01;100666.12;146612;561;46020;-81
2022/09/10 11:31:50;;;;;;;;;11.50;9.25;;;;;34.12;42.83;100660.06;146605;634;47010;-93
2022/09/10 11:35:29;;;;;;;;;9.75;9.75;;;;;32.73;44.47;100446.91;146616;632;46020;-86
2022/09/10 11:38:59;;;;;;;;;11.75;10.50;;;;;33.92;45.54;100656.44;146608;564;46018;-82
2022/09/10 11:41:56;;;;;;;;;10.25;10.25;;;;;34.02;43.49;100659.62;146611;611;46010;-83
2022/09/10 11:45:27;;;;;;;;;13.50;10.00;;;;;34.09;43.62;100638.69;146606;642;46014;-79
2022/09/10 11:49:21;;;;;;;;;12.33;9.67;;;;;32.86;42.80;100422.09;146611;591;46011;-78
2022/09/10 11:52:17;;;;;;;;;10.00;9.00;;;;;34.13;43.05;100626.81;146608;622;46016;-81
2022/09/10 11:55:18;;;;;;;;;12.75;10.75;;;;;34.14;43.46;100626.72;146611;705;46021;-72
2022/09/10 11:58:46;;;;;;;;;11.50;9.75;;;;;34.05;43.20;100620.91;146603;569;46016;-73
2022/09/10 12:02:20;;;;;;;;;12.75;12.25;;;;;33.91;42.83;100619.72;146611;594;46020;-75
2022/09/10 12:06:06;;;;;;;;;11.00;9.00;;;;;33.86;42.43;100613.69;146609;585;46016;-73
2022/09/10 12:09:25;;;;;;;;;12.75;10.50;;;;;33.98;42.71;100607.72;146608;640;46010;-73
2022/09/10 12:13:02;;;;;;;;;11.25;9.50;;;;;34.14;41.66;100599.81;146605;564;47014;-73
2022/09/10 12:16:13;;;;;;;;;11.25;11.25;;;;;34.30;42.68;100599.97;146609;574;46020;-81
2022/09/10 12:19:17;;;;;;;;;14.00;10.50;;;;;33.79;42.48;100478.63;146607;666;46012;-76
2022/09/10 12:22:48;;;;;;;;;14.25;12.75;;;;;33.13;43.03;100346.56;146607;644;46014;-78
2022/09/10 12:26:01;;;;;;;;;12.50;11.00;;;;;34.66;41.56;100577.53;146610;687;46012;-70
2022/09/10 12:29:05;;;;;;;;;10.25;7.25;;;;;34.73;41.21;100570.88;146611;669;46010;-74
2022/09/10 12:32:31;;;;;;;;;7.75;7.50;;;;;34.70;42.26;100577.28;146614;569;46013;-72
2022/09/10 12:36:03;;;;;;;;;11.00;10.00;;;;;33.31;42.08;100317.94;146609;641;46020;-71
2022/09/10 12:39:26;;;;;;;;;10.75;9.75;;;;;34.71;41.97;100562.87;146605;629;47913;-73
2022/09/10 12:42:44;;;;;;;;;13.00;7.33;;;;;34.73;42.27;100557.41;146613;697;46014;-73
2022/09/10 12:46:24;;;;;;;;;8.25;8.25;;;;;34.66;41.09;100553.28;146604;585;46016;-73
2022/09/10 12:49:19;;;;;;;;;11.00;8.00;;;;;34.56;40.87;100555.59;146611;670;46020;-72
2022/09/10 12:52:21;;;;;;;;;9.75;9.00;;;;;34.49;40.21;100546.06;146607;681;46016;-73
2022/09/10 12:56:23;;;;;;;;;;;;;;;;;;;;;
2022/09/10 13:00:15;;;;;;;;;9.25;9.25;;;;;32.86;41.40;100335.28;146608;582;46016;-71
2022/09/10 13:03:39;;;;;;;;;9.67;6.67;;;;;33.78;41.42;100530.69;146609;665;46030;-74
2022/09/10 13:06:46;;;;;;;;;9.33;8.00;;;;;33.68;40.55;100528.53;146604;640;48012;-75
2022/09/10 13:10:00;;;;;;;;;12.00;9.00;;;;;33.62;42.60;100528.81;146609;688;46029;-72
2022/09/10 13:13:11;;;;;;;;;9.00;8.00;;;;;33.67;40.54;100526.78;146605;629;46016;-76
2022/09/10 13:16:12;;;;;;;;;9.25;7.00;;;;;33.64;40.53;100516.16;146613;612;46021;-76
2022/09/10 13:19:59;;;;;;;;;8.50;8.50;;;;;32.09;42.52;100249.38;146608;596;46016;-74
2022/09/10 13:23:37;;;;;;;;;11.50;9.75;;;;;32.07;42.82;100246.78;146607;566;46020;-78
2022/09/10 13:26:55;;;;;;;;;7.00;6.33;;;;;33.57;42.27;100507.53;146613;593;46018;-75
2022/09/10 13:30:18;;;;;;;;;15.50;13.75;;;;;33.63;42.16;100503.66;146610;606;46010;-77
2022/09/10 13:33:21;;;;;;;;;8.50;6.00;;;;;33.68;41.78;100501.66;146616;622;46012;-76
2022/09/10 13:36:46;;;;;;;;;10.50;8.50;;;;;33.68;39.92;100505.19;146616;576;46010;-77
2022/09/10 13:40:31;;;;;;;;;8.00;8.00;;;;;33.53;42.26;100492.50;146613;567;46037;-75
2022/09/10 13:44:20;;;;;;;;;12.00;8.75;;;;;32.52;41.81;100342.22;146609;640;47010;-75
2022/09/10 13:47:23;;;;;;;;;16.00;13.00;;;;;33.19;37.92;100493.19;146605;604;46016;-74
2022/09/10 13:50:24;;;;;;;;;11.75;9.75;;;;;33.10;42.46;100491.78;146612;589;46038;-75
2022/09/10 13:53:22;;;;;;;;;11.00;10.00;;;;;33.13;41.86;100488.09;146607;580;46016;-77
2022/09/10 13:56:33;;;;;;;;;12.00;9.75;;;;;32.34;41.53;100351.97;146612;579;46010;-75
2022/09/10 13:59:46;;;;;;;;;10.50;9.75;;;;;32.88;41.12;100484.66;146607;700;46015;-74
2022/09/10 14:02:54;;;;;;;;;7.75;7.75;;;;;32.79;40.55;100484.22;146612;710;46020;-74
2022/09/10 14:06:03;;;;;;;;;14.25;11.00;;;;;32.75;42.67;100479.94;146610;586;46016;-74
2022/09/10 14:09:09;;;;;;;;;12.50;10.25;;;;;32.77;40.62;100475.34;146612;618;46010;-77
2022/09/10 14:12:04;;;;;;;;;13.75;13.50;;;;;32.83;40.95;100475.06;146607;677;46016;-74
2022/09/10 14:15:06;;;;;;;;;16.00;13.25;;;;;32.84;42.02;100469.62;146610;632;46010;-74
2022/09/10 14:18:01;;;;;;;;;16.00;13.75;;;;;32.86;39.14;100470.44;146607;565;46012;-76
2022/09/10 14:20:54;;;;;;;;;48.50;36.75;;;;;32.91;41.14;100466.69;146610;644;46010;-75
2022/09/10 14:23:59;;;;;;;;;37.50;31.25;;;;;32.87;42.37;100457.91;146605;572;46915;-78
2022/09/10 14:27:18;;;;;;;;;15.50;13.00;;;;;32.82;42.45;100459.91;146608;581;46020;-76
2022/09/10 14:30:35;;;;;;;;;11.25;11.25;;;;;32.73;39.96;100457.63;146612;570;46017;-73
2022/09/10 14:33:39;;;;;;;;;14.00;12.25;;;;;32.59;42.25;100451.09;146611;696;46020;-73
2022/09/10 14:37:02;;;;;;;;;51.50;39.75;;;;;31.67;41.49;100309.31;146605;707;46012;-75
2022/09/10 14:39:57;;;;;;;;;10.75;8.75;;;;;32.44;41.31;100441.03;146608;679;46010;-73